sensor_id;sensor_type;location;lat;lon;timestamp;pressure;altitude;pressure_sealevel;temperature
22828;BMP180;11580;52.562;13.418;2023-05-08T00:00:15;101740.00;;;12.00
22828;BMP180;11580;52.562;13.418;2023-05-08T00:02:42;101745.00;;;12.00
22828;BMP180;11580;52.562;13.418;2023-05-08T00:05:09;101730.00;;;12.00
22828;BMP180;11580;52.562;13.418;2023-05-08T00:07:38;101731.00;;;11.90
22828;BMP180;11580;52.562;13.418;2023-05-08T00:10:07;101727.00;;;11.90
22828;BMP180;11580;52.562;13.418;2023-05-08T00:12:35;101736.00;;;11.90
22828;BMP180;11580;52.562;13.418;2023-05-08T00:15:04;101698.00;;;11.90
22828;BMP180;11580;52.562;13.418;2023-05-08T00:17:31;101720.00;;;11.80
22828;BMP180;11580;52.562;13.418;2023-05-08T00:19:58;101731.00;;;11.80
22828;BMP180;11580;52.562;13.418;2023-05-08T00:22:26;101731.00;;;11.80
22828;BMP180;11580;52.562;13.418;2023-05-08T00:24:54;101734.00;;;11.80
22828;BMP180;11580;52.562;13.418;2023-05-08T00:27:22;101738.00;;;11.80
22828;BMP180;11580;52.562;13.418;2023-05-08T00:29:49;101737.00;;;11.80
22828;BMP180;11580;52.562;13.418;2023-05-08T00:32:16;101734.00;;;11.70
22828;BMP180;11580;52.562;13.418;2023-05-08T00:34:44;101735.00;;;11.70
22828;BMP180;11580;52.562;13.418;2023-05-08T00:37:11;101737.00;;;11.70
22828;BMP180;11580;52.562;13.418;2023-05-08T00:39:38;101739.00;;;11.60
22828;BMP180;11580;52.562;13.418;2023-05-08T00:42:06;101734.00;;;11.60
22828;BMP180;11580;52.562;13.418;2023-05-08T00:44:33;101743.00;;;11.60
22828;BMP180;11580;52.562;13.418;2023-05-08T00:47:01;101745.00;;;11.60
22828;BMP180;11580;52.562;13.418;2023-05-08T00:49:28;101745.00;;;11.60
22828;BMP180;11580;52.562;13.418;2023-05-08T00:51:55;101753.00;;;11.50
22828;BMP180;11580;52.562;13.418;2023-05-08T00:54:25;101750.00;;;11.50
22828;BMP180;11580;52.562;13.418;2023-05-08T00:56:53;101739.00;;;11.50
22828;BMP180;11580;52.562;13.418;2023-05-08T00:59:24;101750.00;;;11.50
22828;BMP180;11580;52.562;13.418;2023-05-08T01:01:52;101751.00;;;11.50
22828;BMP180;11580;52.562;13.418;2023-05-08T01:04:23;101756.00;;;11.50
22828;BMP180;11580;52.562;13.418;2023-05-08T01:06:50;101747.00;;;11.40
22828;BMP180;11580;52.562;13.418;2023-05-08T01:09:18;101752.00;;;11.40
22828;BMP180;11580;52.562;13.418;2023-05-08T01:11:55;101750.00;;;11.40
22828;BMP180;11580;52.562;13.418;2023-05-08T01:14:37;101748.00;;;11.40
22828;BMP180;11580;52.562;13.418;2023-05-08T01:17:15;101757.00;;;11.40
22828;BMP180;11580;52.562;13.418;2023-05-08T01:20:05;101750.00;;;11.30
22828;BMP180;11580;52.562;13.418;2023-05-08T01:23:38;101762.00;;;11.30
22828;BMP180;11580;52.562;13.418;2023-05-08T01:26:50;101749.00;;;11.30
22828;BMP180;11580;52.562;13.418;2023-05-08T01:30:04;101749.00;;;11.20
22828;BMP180;11580;52.562;13.418;2023-05-08T01:32:40;101752.00;;;11.20
22828;BMP180;11580;52.562;13.418;2023-05-08T01:35:16;101755.00;;;11.20
22828;BMP180;11580;52.562;13.418;2023-05-08T01:37:53;101753.00;;;11.10
22828;BMP180;11580;52.562;13.418;2023-05-08T01:40:33;101751.00;;;11.10
22828;BMP180;11580;52.562;13.418;2023-05-08T01:43:13;101757.00;;;11.10
22828;BMP180;11580;52.562;13.418;2023-05-08T01:45:47;101761.00;;;11.10
22828;BMP180;11580;52.562;13.418;2023-05-08T01:48:23;101761.00;;;11.00
22828;BMP180;11580;52.562;13.418;2023-05-08T01:50:59;101762.00;;;11.00
22828;BMP180;11580;52.562;13.418;2023-05-08T01:53:30;101752.00;;;11.00
22828;BMP180;11580;52.562;13.418;2023-05-08T01:56:10;101756.00;;;11.00
22828;BMP180;11580;52.562;13.418;2023-05-08T01:58:40;101757.00;;;10.90
22828;BMP180;11580;52.562;13.418;2023-05-08T02:01:09;101755.00;;;10.90
22828;BMP180;11580;52.562;13.418;2023-05-08T02:03:42;101762.00;;;10.90
22828;BMP180;11580;52.562;13.418;2023-05-08T02:06:17;101751.00;;;10.90
22828;BMP180;11580;52.562;13.418;2023-05-08T02:08:47;101746.00;;;10.90
22828;BMP180;11580;52.562;13.418;2023-05-08T02:11:16;101764.00;;;10.80
22828;BMP180;11580;52.562;13.418;2023-05-08T02:13:47;101778.00;;;10.80
22828;BMP180;11580;52.562;13.418;2023-05-08T02:16:16;101761.00;;;10.80
22828;BMP180;11580;52.562;13.418;2023-05-08T02:18:51;101764.00;;;10.80
22828;BMP180;11580;52.562;13.418;2023-05-08T02:21:19;101768.00;;;10.70
22828;BMP180;11580;52.562;13.418;2023-05-08T02:23:48;101754.00;;;10.70
22828;BMP180;11580;52.562;13.418;2023-05-08T02:26:18;101761.00;;;10.70
22828;BMP180;11580;52.562;13.418;2023-05-08T02:28:47;101759.00;;;10.70
22828;BMP180;11580;52.562;13.418;2023-05-08T02:31:17;101754.00;;;10.70
22828;BMP180;11580;52.562;13.418;2023-05-08T02:33:48;101756.00;;;10.60
22828;BMP180;11580;52.562;13.418;2023-05-08T02:36:18;101752.00;;;10.60
22828;BMP180;11580;52.562;13.418;2023-05-08T02:38:50;101747.00;;;10.60
22828;BMP180;11580;52.562;13.418;2023-05-08T02:41:20;101748.00;;;10.50
22828;BMP180;11580;52.562;13.418;2023-05-08T02:43:49;101751.00;;;10.50
22828;BMP180;11580;52.562;13.418;2023-05-08T02:46:24;101741.00;;;10.50
22828;BMP180;11580;52.562;13.418;2023-05-08T02:49:02;101743.00;;;10.50
22828;BMP180;11580;52.562;13.418;2023-05-08T02:51:45;101743.00;;;10.50
22828;BMP180;11580;52.562;13.418;2023-05-08T02:54:23;101741.00;;;10.40
22828;BMP180;11580;52.562;13.418;2023-05-08T02:56:59;101755.00;;;10.40
22828;BMP180;11580;52.562;13.418;2023-05-08T02:59:34;101743.00;;;10.40
22828;BMP180;11580;52.562;13.418;2023-05-08T03:02:09;101746.00;;;10.30
22828;BMP180;11580;52.562;13.418;2023-05-08T03:04:48;101757.00;;;10.30
22828;BMP180;11580;52.562;13.418;2023-05-08T03:07:20;101748.00;;;10.30
22828;BMP180;11580;52.562;13.418;2023-05-08T03:09:58;101758.00;;;10.30
22828;BMP180;11580;52.562;13.418;2023-05-08T03:12:29;101759.00;;;10.30
22828;BMP180;11580;52.562;13.418;2023-05-08T03:15:05;101743.00;;;10.30
22828;BMP180;11580;52.562;13.418;2023-05-08T03:17:38;101752.00;;;10.20
22828;BMP180;11580;52.562;13.418;2023-05-08T03:20:11;101750.00;;;10.20
22828;BMP180;11580;52.562;13.418;2023-05-08T03:22:44;101756.00;;;10.20
22828;BMP180;11580;52.562;13.418;2023-05-08T03:25:16;101753.00;;;10.20
22828;BMP180;11580;52.562;13.418;2023-05-08T03:27:46;101747.00;;;10.20
22828;BMP180;11580;52.562;13.418;2023-05-08T03:30:15;101741.00;;;10.30
22828;BMP180;11580;52.562;13.418;2023-05-08T03:32:52;101748.00;;;10.30
22828;BMP180;11580;52.562;13.418;2023-05-08T03:35:22;101746.00;;;10.50
22828;BMP180;11580;52.562;13.418;2023-05-08T03:37:51;101755.00;;;10.60
22828;BMP180;11580;52.562;13.418;2023-05-08T03:40:19;101750.00;;;10.70
22828;BMP180;11580;52.562;13.418;2023-05-08T03:42:47;101749.00;;;10.90
22828;BMP180;11580;52.562;13.418;2023-05-08T03:45:17;101758.00;;;11.00
22828;BMP180;11580;52.562;13.418;2023-05-08T03:47:46;101761.00;;;11.20
22828;BMP180;11580;52.562;13.418;2023-05-08T03:50:15;101758.00;;;11.50
22828;BMP180;11580;52.562;13.418;2023-05-08T03:52:44;101766.00;;;11.80
22828;BMP180;11580;52.562;13.418;2023-05-08T03:55:11;101766.00;;;12.20
22828;BMP180;11580;52.562;13.418;2023-05-08T03:57:46;101774.00;;;12.70
22828;BMP180;11580;52.562;13.418;2023-05-08T04:00:30;101777.00;;;13.30
22828;BMP180;11580;52.562;13.418;2023-05-08T04:03:15;101790.00;;;13.90
22828;BMP180;11580;52.562;13.418;2023-05-08T04:05:51;101786.00;;;14.50
22828;BMP180;11580;52.562;13.418;2023-05-08T04:08:27;101787.00;;;15.10
22828;BMP180;11580;52.562;13.418;2023-05-08T04:11:08;101805.00;;;15.70
22828;BMP180;11580;52.562;13.418;2023-05-08T04:13:46;101795.00;;;16.20
22828;BMP180;11580;52.562;13.418;2023-05-08T04:16:20;101806.00;;;16.70
22828;BMP180;11580;52.562;13.418;2023-05-08T04:18:56;101812.00;;;17.10
22828;BMP180;11580;52.562;13.418;2023-05-08T04:21:26;101808.00;;;17.50
22828;BMP180;11580;52.562;13.418;2023-05-08T04:23:57;101815.00;;;17.80
22828;BMP180;11580;52.562;13.418;2023-05-08T04:26:27;101816.00;;;18.00
22828;BMP180;11580;52.562;13.418;2023-05-08T04:28:57;101816.00;;;18.20
22828;BMP180;11580;52.562;13.418;2023-05-08T04:31:25;101817.00;;;18.30
22828;BMP180;11580;52.562;13.418;2023-05-08T04:33:54;101829.00;;;18.40
22828;BMP180;11580;52.562;13.418;2023-05-08T04:36:22;101824.00;;;18.40
22828;BMP180;11580;52.562;13.418;2023-05-08T04:38:50;101826.00;;;18.40
22828;BMP180;11580;52.562;13.418;2023-05-08T04:41:19;101818.00;;;18.30
22828;BMP180;11580;52.562;13.418;2023-05-08T04:43:47;101836.00;;;18.20
22828;BMP180;11580;52.562;13.418;2023-05-08T04:46:14;101829.00;;;18.00
22828;BMP180;11580;52.562;13.418;2023-05-08T04:48:42;101843.00;;;17.80
22828;BMP180;11580;52.562;13.418;2023-05-08T04:51:09;101834.00;;;17.60
22828;BMP180;11580;52.562;13.418;2023-05-08T04:53:36;101844.00;;;17.30
22828;BMP180;11580;52.562;13.418;2023-05-08T04:56:04;101848.00;;;17.10
22828;BMP180;11580;52.562;13.418;2023-05-08T04:58:33;101844.00;;;16.80
22828;BMP180;11580;52.562;13.418;2023-05-08T05:01:01;101849.00;;;16.60
22828;BMP180;11580;52.562;13.418;2023-05-08T05:03:29;101846.00;;;16.30
22828;BMP180;11580;52.562;13.418;2023-05-08T05:06:00;101848.00;;;16.10
22828;BMP180;11580;52.562;13.418;2023-05-08T05:08:28;101849.00;;;15.80
22828;BMP180;11580;52.562;13.418;2023-05-08T05:10:56;101851.00;;;15.60
22828;BMP180;11580;52.562;13.418;2023-05-08T05:13:23;101843.00;;;15.40
22828;BMP180;11580;52.562;13.418;2023-05-08T05:15:52;101833.00;;;15.20
22828;BMP180;11580;52.562;13.418;2023-05-08T05:18:22;101846.00;;;15.00
22828;BMP180;11580;52.562;13.418;2023-05-08T05:20:51;101848.00;;;14.90
22828;BMP180;11580;52.562;13.418;2023-05-08T05:23:18;101836.00;;;14.70
22828;BMP180;11580;52.562;13.418;2023-05-08T05:25:46;101846.00;;;14.60
22828;BMP180;11580;52.562;13.418;2023-05-08T05:28:13;101845.00;;;14.50
22828;BMP180;11580;52.562;13.418;2023-05-08T05:30:40;101851.00;;;14.30
22828;BMP180;11580;52.562;13.418;2023-05-08T05:33:09;101847.00;;;14.20
22828;BMP180;11580;52.562;13.418;2023-05-08T05:35:36;101851.00;;;14.20
22828;BMP180;11580;52.562;13.418;2023-05-08T05:38:04;101854.00;;;14.00
22828;BMP180;11580;52.562;13.418;2023-05-08T05:40:31;101852.00;;;13.90
22828;BMP180;11580;52.562;13.418;2023-05-08T05:42:58;101863.00;;;13.90
22828;BMP180;11580;52.562;13.418;2023-05-08T05:45:26;101857.00;;;13.80
22828;BMP180;11580;52.562;13.418;2023-05-08T05:47:54;101848.00;;;13.80
22828;BMP180;11580;52.562;13.418;2023-05-08T05:50:25;101860.00;;;13.70
22828;BMP180;11580;52.562;13.418;2023-05-08T05:52:53;101859.00;;;13.70
22828;BMP180;11580;52.562;13.418;2023-05-08T05:55:21;101861.00;;;13.60
22828;BMP180;11580;52.562;13.418;2023-05-08T05:57:48;101864.00;;;13.60
22828;BMP180;11580;52.562;13.418;2023-05-08T06:00:17;101870.00;;;13.60
22828;BMP180;11580;52.562;13.418;2023-05-08T06:02:49;101862.00;;;13.50
22828;BMP180;11580;52.562;13.418;2023-05-08T06:05:17;101876.00;;;13.60
22828;BMP180;11580;52.562;13.418;2023-05-08T06:07:46;101863.00;;;13.50
22828;BMP180;11580;52.562;13.418;2023-05-08T06:10:13;101858.00;;;13.50
22828;BMP180;11580;52.562;13.418;2023-05-08T06:12:40;101872.00;;;13.50
22828;BMP180;11580;52.562;13.418;2023-05-08T06:15:10;101869.00;;;13.50
22828;BMP180;11580;52.562;13.418;2023-05-08T06:17:40;101865.00;;;13.50
22828;BMP180;11580;52.562;13.418;2023-05-08T06:20:08;101865.00;;;13.60
22828;BMP180;11580;52.562;13.418;2023-05-08T06:22:35;101870.00;;;13.60
22828;BMP180;11580;52.562;13.418;2023-05-08T06:25:06;101865.00;;;13.60
22828;BMP180;11580;52.562;13.418;2023-05-08T06:27:34;101870.00;;;13.60
22828;BMP180;11580;52.562;13.418;2023-05-08T06:30:03;101869.00;;;13.60
22828;BMP180;11580;52.562;13.418;2023-05-08T06:32:32;101874.00;;;13.70
22828;BMP180;11580;52.562;13.418;2023-05-08T06:34:59;101871.00;;;13.70
22828;BMP180;11580;52.562;13.418;2023-05-08T06:37:27;101865.00;;;13.70
22828;BMP180;11580;52.562;13.418;2023-05-08T06:39:54;101876.00;;;13.80
22828;BMP180;11580;52.562;13.418;2023-05-08T06:42:22;101880.00;;;13.80
22828;BMP180;11580;52.562;13.418;2023-05-08T06:44:50;101869.00;;;13.90
22828;BMP180;11580;52.562;13.418;2023-05-08T06:47:18;101881.00;;;13.90
22828;BMP180;11580;52.562;13.418;2023-05-08T06:49:45;101870.00;;;14.00
22828;BMP180;11580;52.562;13.418;2023-05-08T06:52:12;101862.00;;;14.00
22828;BMP180;11580;52.562;13.418;2023-05-08T06:54:40;101876.00;;;14.10
22828;BMP180;11580;52.562;13.418;2023-05-08T06:57:07;101885.00;;;14.20
22828;BMP180;11580;52.562;13.418;2023-05-08T06:59:35;101876.00;;;14.30
22828;BMP180;11580;52.562;13.418;2023-05-08T07:02:03;101880.00;;;14.30
22828;BMP180;11580;52.562;13.418;2023-05-08T07:04:30;101877.00;;;14.40
22828;BMP180;11580;52.562;13.418;2023-05-08T07:06:57;101875.00;;;14.40
22828;BMP180;11580;52.562;13.418;2023-05-08T07:09:25;101872.00;;;14.50
22828;BMP180;11580;52.562;13.418;2023-05-08T07:11:52;101877.00;;;14.60
22828;BMP180;11580;52.562;13.418;2023-05-08T07:14:19;101876.00;;;14.60
22828;BMP180;11580;52.562;13.418;2023-05-08T07:16:48;101878.00;;;14.70
22828;BMP180;11580;52.562;13.418;2023-05-08T07:19:15;101877.00;;;14.80
22828;BMP180;11580;52.562;13.418;2023-05-08T07:21:42;101870.00;;;14.80
22828;BMP180;11580;52.562;13.418;2023-05-08T07:24:11;101874.00;;;14.90
22828;BMP180;11580;52.562;13.418;2023-05-08T07:26:38;101876.00;;;15.00
22828;BMP180;11580;52.562;13.418;2023-05-08T07:29:05;101878.00;;;15.00
22828;BMP180;11580;52.562;13.418;2023-05-08T07:31:33;101878.00;;;15.10
22828;BMP180;11580;52.562;13.418;2023-05-08T07:34:02;101869.00;;;15.20
22828;BMP180;11580;52.562;13.418;2023-05-08T07:36:29;101869.00;;;15.30
22828;BMP180;11580;52.562;13.418;2023-05-08T07:38:56;101883.00;;;15.20
22828;BMP180;11580;52.562;13.418;2023-05-08T07:41:23;101878.00;;;15.40
22828;BMP180;11580;52.562;13.418;2023-05-08T07:43:51;101879.00;;;15.40
22828;BMP180;11580;52.562;13.418;2023-05-08T07:46:19;101873.00;;;15.50
22828;BMP180;11580;52.562;13.418;2023-05-08T07:48:46;101886.00;;;15.60
22828;BMP180;11580;52.562;13.418;2023-05-08T07:51:15;101890.00;;;15.60
22828;BMP180;11580;52.562;13.418;2023-05-08T07:53:42;101886.00;;;15.70
22828;BMP180;11580;52.562;13.418;2023-05-08T07:56:10;101891.00;;;15.70
22828;BMP180;11580;52.562;13.418;2023-05-08T07:58:37;101878.00;;;15.80
22828;BMP180;11580;52.562;13.418;2023-05-08T08:01:05;101875.00;;;15.90
22828;BMP180;11580;52.562;13.418;2023-05-08T08:03:32;101862.00;;;15.90
22828;BMP180;11580;52.562;13.418;2023-05-08T08:05:59;101872.00;;;16.00
22828;BMP180;11580;52.562;13.418;2023-05-08T08:08:28;101861.00;;;16.10
22828;BMP180;11580;52.562;13.418;2023-05-08T08:10:55;101873.00;;;16.10
22828;BMP180;11580;52.562;13.418;2023-05-08T08:13:22;101864.00;;;16.20
22828;BMP180;11580;52.562;13.418;2023-05-08T08:15:49;101864.00;;;16.20
22828;BMP180;11580;52.562;13.418;2023-05-08T08:18:16;101870.00;;;16.30
22828;BMP180;11580;52.562;13.418;2023-05-08T08:20:44;101863.00;;;16.30
22828;BMP180;11580;52.562;13.418;2023-05-08T08:23:11;101859.00;;;16.40
22828;BMP180;11580;52.562;13.418;2023-05-08T08:25:39;101864.00;;;16.50
22828;BMP180;11580;52.562;13.418;2023-05-08T08:28:07;101852.00;;;16.50
22828;BMP180;11580;52.562;13.418;2023-05-08T08:30:34;101864.00;;;16.60
22828;BMP180;11580;52.562;13.418;2023-05-08T08:33:01;101871.00;;;16.60
22828;BMP180;11580;52.562;13.418;2023-05-08T08:35:28;101862.00;;;16.70
22828;BMP180;11580;52.562;13.418;2023-05-08T08:37:56;101870.00;;;16.70
22828;BMP180;11580;52.562;13.418;2023-05-08T08:40:23;101857.00;;;16.80
22828;BMP180;11580;52.562;13.418;2023-05-08T08:42:52;101858.00;;;16.90
22828;BMP180;11580;52.562;13.418;2023-05-08T08:45:20;101860.00;;;16.90
22828;BMP180;11580;52.562;13.418;2023-05-08T08:47:50;101875.00;;;17.00
22828;BMP180;11580;52.562;13.418;2023-05-08T08:50:19;101870.00;;;17.10
22828;BMP180;11580;52.562;13.418;2023-05-08T08:52:54;101871.00;;;17.20
22828;BMP180;11580;52.562;13.418;2023-05-08T08:55:24;101862.00;;;17.20
22828;BMP180;11580;52.562;13.418;2023-05-08T08:58:13;101870.00;;;17.30
22828;BMP180;11580;52.562;13.418;2023-05-08T09:00:42;101870.00;;;17.30
22828;BMP180;11580;52.562;13.418;2023-05-08T09:03:10;101869.00;;;17.40
22828;BMP180;11580;52.562;13.418;2023-05-08T09:05:37;101860.00;;;17.40
22828;BMP180;11580;52.562;13.418;2023-05-08T09:08:05;101858.00;;;17.50
22828;BMP180;11580;52.562;13.418;2023-05-08T09:10:34;101858.00;;;17.50
22828;BMP180;11580;52.562;13.418;2023-05-08T09:13:04;101870.00;;;17.60
22828;BMP180;11580;52.562;13.418;2023-05-08T09:15:31;101857.00;;;17.70
22828;BMP180;11580;52.562;13.418;2023-05-08T09:18:00;101860.00;;;17.70
22828;BMP180;11580;52.562;13.418;2023-05-08T09:20:28;101861.00;;;17.80
22828;BMP180;11580;52.562;13.418;2023-05-08T09:22:57;101859.00;;;17.80
22828;BMP180;11580;52.562;13.418;2023-05-08T09:25:40;101837.00;;;17.90
22828;BMP180;11580;52.562;13.418;2023-05-08T09:28:17;101855.00;;;18.00
22828;BMP180;11580;52.562;13.418;2023-05-08T09:30:50;101870.00;;;18.00
22828;BMP180;11580;52.562;13.418;2023-05-08T09:33:18;101856.00;;;18.10
22828;BMP180;11580;52.562;13.418;2023-05-08T09:35:46;101863.00;;;18.20
22828;BMP180;11580;52.562;13.418;2023-05-08T09:38:34;101854.00;;;18.20
22828;BMP180;11580;52.562;13.418;2023-05-08T09:41:07;101839.00;;;18.20
22828;BMP180;11580;52.562;13.418;2023-05-08T09:43:36;101847.00;;;18.30
22828;BMP180;11580;52.562;13.418;2023-05-08T09:46:23;101863.00;;;18.30
22828;BMP180;11580;52.562;13.418;2023-05-08T09:48:53;101871.00;;;18.30
22828;BMP180;11580;52.562;13.418;2023-05-08T09:51:21;101864.00;;;18.40
22828;BMP180;11580;52.562;13.418;2023-05-08T09:53:50;101850.00;;;18.40
22828;BMP180;11580;52.562;13.418;2023-05-08T09:56:36;101852.00;;;18.50
22828;BMP180;11580;52.562;13.418;2023-05-08T09:59:23;101857.00;;;18.50
22828;BMP180;11580;52.562;13.418;2023-05-08T10:01:51;101849.00;;;18.60
22828;BMP180;11580;52.562;13.418;2023-05-08T10:04:31;101851.00;;;18.70
22828;BMP180;11580;52.562;13.418;2023-05-08T10:06:58;101861.00;;;18.70
22828;BMP180;11580;52.562;13.418;2023-05-08T10:09:25;101855.00;;;18.80
22828;BMP180;11580;52.562;13.418;2023-05-08T10:11:53;101863.00;;;18.80
22828;BMP180;11580;52.562;13.418;2023-05-08T10:14:23;101846.00;;;18.90
22828;BMP180;11580;52.562;13.418;2023-05-08T10:16:52;101856.00;;;19.00
22828;BMP180;11580;52.562;13.418;2023-05-08T10:19:22;101851.00;;;19.00
22828;BMP180;11580;52.562;13.418;2023-05-08T10:21:52;101828.00;;;19.10
22828;BMP180;11580;52.562;13.418;2023-05-08T10:24:25;101865.00;;;19.10
22828;BMP180;11580;52.562;13.418;2023-05-08T10:27:00;101844.00;;;19.20
22828;BMP180;11580;52.562;13.418;2023-05-08T10:29:36;101847.00;;;19.20
22828;BMP180;11580;52.562;13.418;2023-05-08T10:32:09;101848.00;;;19.20
22828;BMP180;11580;52.562;13.418;2023-05-08T10:34:39;101834.00;;;19.30
22828;BMP180;11580;52.562;13.418;2023-05-08T10:37:08;101848.00;;;19.30
22828;BMP180;11580;52.562;13.418;2023-05-08T10:39:37;101838.00;;;19.30
22828;BMP180;11580;52.562;13.418;2023-05-08T10:42:05;101838.00;;;19.40
22828;BMP180;11580;52.562;13.418;2023-05-08T10:44:34;101836.00;;;19.40
22828;BMP180;11580;52.562;13.418;2023-05-08T10:47:12;101833.00;;;19.50
22828;BMP180;11580;52.562;13.418;2023-05-08T10:49:54;101823.00;;;19.50
22828;BMP180;11580;52.562;13.418;2023-05-08T10:52:32;101820.00;;;19.60
22828;BMP180;11580;52.562;13.418;2023-05-08T10:55:20;101819.00;;;19.60
22828;BMP180;11580;52.562;13.418;2023-05-08T10:58:08;101830.00;;;19.60
22828;BMP180;11580;52.562;13.418;2023-05-08T11:01:11;101825.00;;;19.60
22828;BMP180;11580;52.562;13.418;2023-05-08T11:03:42;101816.00;;;19.70
22828;BMP180;11580;52.562;13.418;2023-05-08T11:06:10;101822.00;;;19.70
22828;BMP180;11580;52.562;13.418;2023-05-08T11:08:50;101820.00;;;19.80
22828;BMP180;11580;52.562;13.418;2023-05-08T11:11:30;101825.00;;;19.80
22828;BMP180;11580;52.562;13.418;2023-05-08T11:14:11;101823.00;;;19.80
22828;BMP180;11580;52.562;13.418;2023-05-08T11:17:06;101812.00;;;19.90
22828;BMP180;11580;52.562;13.418;2023-05-08T11:19:35;101817.00;;;19.90
22828;BMP180;11580;52.562;13.418;2023-05-08T11:22:28;101815.00;;;19.90
22828;BMP180;11580;52.562;13.418;2023-05-08T11:25:01;101819.00;;;19.90
22828;BMP180;11580;52.562;13.418;2023-05-08T11:28:10;101813.00;;;19.90
22828;BMP180;11580;52.562;13.418;2023-05-08T11:30:39;101810.00;;;19.90
22828;BMP180;11580;52.562;13.418;2023-05-08T11:33:32;101811.00;;;20.00
22828;BMP180;11580;52.562;13.418;2023-05-08T11:36:12;101812.00;;;20.00
22828;BMP180;11580;52.562;13.418;2023-05-08T11:38:41;101812.00;;;20.10
22828;BMP180;11580;52.562;13.418;2023-05-08T11:41:10;101807.00;;;20.10
22828;BMP180;11580;52.562;13.418;2023-05-08T11:44:16;101791.00;;;20.10
22828;BMP180;11580;52.562;13.418;2023-05-08T11:46:50;101798.00;;;20.10
22828;BMP180;11580;52.562;13.418;2023-05-08T11:49:21;101806.00;;;20.20
22828;BMP180;11580;52.562;13.418;2023-05-08T11:51:51;101799.00;;;20.20
22828;BMP180;11580;52.562;13.418;2023-05-08T11:54:21;101786.00;;;20.20
22828;BMP180;11580;52.562;13.418;2023-05-08T11:56:50;101787.00;;;20.20
22828;BMP180;11580;52.562;13.418;2023-05-08T11:59:19;101771.00;;;20.30
22828;BMP180;11580;52.562;13.418;2023-05-08T12:01:48;101801.00;;;20.30
22828;BMP180;11580;52.562;13.418;2023-05-08T12:04:16;101797.00;;;20.40
22828;BMP180;11580;52.562;13.418;2023-05-08T12:06:44;101786.00;;;20.40
22828;BMP180;11580;52.562;13.418;2023-05-08T12:09:15;101786.00;;;20.40
22828;BMP180;11580;52.562;13.418;2023-05-08T12:11:43;101786.00;;;20.40
22828;BMP180;11580;52.562;13.418;2023-05-08T12:14:12;101799.00;;;20.40
22828;BMP180;11580;52.562;13.418;2023-05-08T12:16:40;101790.00;;;20.40
22828;BMP180;11580;52.562;13.418;2023-05-08T12:19:09;101785.00;;;20.50
22828;BMP180;11580;52.562;13.418;2023-05-08T12:21:37;101780.00;;;20.50
22828;BMP180;11580;52.562;13.418;2023-05-08T12:24:10;101774.00;;;20.50
22828;BMP180;11580;52.562;13.418;2023-05-08T12:26:37;101773.00;;;20.50
22828;BMP180;11580;52.562;13.418;2023-05-08T12:29:05;101780.00;;;20.60
22828;BMP180;11580;52.562;13.418;2023-05-08T12:31:34;101788.00;;;20.60
22828;BMP180;11580;52.562;13.418;2023-05-08T12:34:02;101783.00;;;20.60
22828;BMP180;11580;52.562;13.418;2023-05-08T12:36:33;101785.00;;;20.70
22828;BMP180;11580;52.562;13.418;2023-05-08T12:39:17;101782.00;;;20.70
22828;BMP180;11580;52.562;13.418;2023-05-08T12:41:49;101777.00;;;20.70
22828;BMP180;11580;52.562;13.418;2023-05-08T12:44:22;101762.00;;;20.80
22828;BMP180;11580;52.562;13.418;2023-05-08T12:46:51;101771.00;;;20.80
22828;BMP180;11580;52.562;13.418;2023-05-08T12:49:27;101766.00;;;20.90
22828;BMP180;11580;52.562;13.418;2023-05-08T12:52:03;101761.00;;;20.90
22828;BMP180;11580;52.562;13.418;2023-05-08T12:54:35;101754.00;;;20.90
22828;BMP180;11580;52.562;13.418;2023-05-08T12:57:08;101766.00;;;21.00
22828;BMP180;11580;52.562;13.418;2023-05-08T12:59:36;101772.00;;;21.00
22828;BMP180;11580;52.562;13.418;2023-05-08T13:02:03;101771.00;;;21.00
22828;BMP180;11580;52.562;13.418;2023-05-08T13:04:37;101763.00;;;21.10
22828;BMP180;11580;52.562;13.418;2023-05-08T13:07:04;101762.00;;;21.10
22828;BMP180;11580;52.562;13.418;2023-05-08T13:09:33;101764.00;;;21.10
22828;BMP180;11580;52.562;13.418;2023-05-08T13:12:00;101762.00;;;21.10
22828;BMP180;11580;52.562;13.418;2023-05-08T13:14:27;101753.00;;;21.10
22828;BMP180;11580;52.562;13.418;2023-05-08T13:16:54;101743.00;;;21.20
22828;BMP180;11580;52.562;13.418;2023-05-08T13:19:22;101749.00;;;21.20
22828;BMP180;11580;52.562;13.418;2023-05-08T13:21:49;101734.00;;;21.20
22828;BMP180;11580;52.562;13.418;2023-05-08T13:24:17;101729.00;;;21.20
22828;BMP180;11580;52.562;13.418;2023-05-08T13:26:46;101734.00;;;21.30
22828;BMP180;11580;52.562;13.418;2023-05-08T13:29:13;101722.00;;;21.30
22828;BMP180;11580;52.562;13.418;2023-05-08T13:31:40;101723.00;;;21.30
22828;BMP180;11580;52.562;13.418;2023-05-08T13:34:07;101721.00;;;21.30
22828;BMP180;11580;52.562;13.418;2023-05-08T13:36:34;101719.00;;;21.30
22828;BMP180;11580;52.562;13.418;2023-05-08T13:39:02;101726.00;;;21.40
22828;BMP180;11580;52.562;13.418;2023-05-08T13:41:29;101713.00;;;21.40
22828;BMP180;11580;52.562;13.418;2023-05-08T13:43:57;101719.00;;;21.40
22828;BMP180;11580;52.562;13.418;2023-05-08T13:46:24;101713.00;;;21.40
22828;BMP180;11580;52.562;13.418;2023-05-08T13:48:52;101714.00;;;21.40
22828;BMP180;11580;52.562;13.418;2023-05-08T13:51:19;101705.00;;;21.40
22828;BMP180;11580;52.562;13.418;2023-05-08T13:53:46;101695.00;;;21.40
22828;BMP180;11580;52.562;13.418;2023-05-08T13:56:13;101693.00;;;21.50
22828;BMP180;11580;52.562;13.418;2023-05-08T13:58:40;101702.00;;;21.50
22828;BMP180;11580;52.562;13.418;2023-05-08T14:01:09;101702.00;;;21.50
22828;BMP180;11580;52.562;13.418;2023-05-08T14:03:36;101696.00;;;21.50
22828;BMP180;11580;52.562;13.418;2023-05-08T14:06:04;101689.00;;;21.60